Terminal Aerodrome Forecast
Issued by NWS Sioux Falls, SD

Home | Current Version | Previous Version | Graphics & Text | Print | Product List | Glossary On
Versions: 1 2 3 4 5 6 7 8 9 10 11 12 13 14 15 16 17 18 19 20 21 22 23 24 25 26 27 28 29 30
000
FTUS43 KFSD 152041 AAA
TAFSUX
TAF AMD
KSUX 152041Z 1521/1618 33019G25KT P6SM OVC007
     FM152200 33022G30KT P6SM OVC010
     FM160000 33024G33KT 3SM -SN OVC010
     FM160500 33020G30KT P6SM OVC012
     FM161200 32014G21KT P6SM OVC015=

USA.gov is the U.S. government's official web portal to all federal, state and local government web resources and services.